createdAt,value
2019-02-25T00:00:11.825Z,6.97
2019-02-25T00:02:42.223Z,7.23
2019-02-25T00:05:09.690Z,6.10
2019-02-25T00:07:36.973Z,6.33
2019-02-25T00:10:05.371Z,6.60
2019-02-25T00:12:33.151Z,6.00
2019-02-25T00:15:00.416Z,6.73
2019-02-25T00:17:27.804Z,6.07
2019-02-25T00:19:55.110Z,5.50
2019-02-25T00:22:22.394Z,6.53
2019-02-25T00:24:49.651Z,5.73
2019-02-25T00:27:17.071Z,6.07
2019-02-25T00:29:44.393Z,6.37
2019-02-25T00:32:11.749Z,6.57
2019-02-25T00:34:39.031Z,6.73
2019-02-25T00:37:06.316Z,6.60
2019-02-25T00:39:33.644Z,6.33
2019-02-25T00:42:00.893Z,5.87
2019-02-25T00:44:28.262Z,6.77
2019-02-25T00:46:55.538Z,6.83
2019-02-25T00:49:22.828Z,5.70
2019-02-25T00:51:51.331Z,6.67
2019-02-25T00:54:18.692Z,6.40
2019-02-25T00:56:45.985Z,6.40
2019-02-25T00:59:14.568Z,5.90
2019-02-25T01:01:41.849Z,5.87
2019-02-25T01:04:09.112Z,6.90
2019-02-25T01:06:37.529Z,7.83
2019-02-25T01:09:07.676Z,7.43
2019-02-25T01:11:35.367Z,7.40
2019-02-25T01:14:02.968Z,7.93
2019-02-25T01:16:30.289Z,6.67
2019-02-25T01:18:57.567Z,7.80
2019-02-25T01:21:24.820Z,7.60
2019-02-25T01:23:52.100Z,6.60
2019-02-25T01:26:19.436Z,6.80
2019-02-25T01:28:46.723Z,7.00
2019-02-25T01:31:14.120Z,6.93
2019-02-25T01:33:41.368Z,6.80
2019-02-25T01:36:08.664Z,6.40
2019-02-25T01:38:35.980Z,6.60
2019-02-25T01:41:03.272Z,6.13
2019-02-25T01:43:30.615Z,6.53
2019-02-25T01:45:59.109Z,6.10
2019-02-25T01:48:26.452Z,6.30
2019-02-25T01:50:53.910Z,5.80
2019-02-25T01:53:21.252Z,6.43
2019-02-25T01:55:48.528Z,5.83
2019-02-25T01:58:15.857Z,5.60
2019-02-25T02:00:43.230Z,5.33
2019-02-25T02:03:10.596Z,5.57
2019-02-25T02:05:37.896Z,5.73
2019-02-25T02:08:05.174Z,5.47
2019-02-25T02:10:32.515Z,6.50
2019-02-25T02:12:59.987Z,4.97
2019-02-25T02:15:27.353Z,5.67
2019-02-25T02:17:54.686Z,5.60
2019-02-25T02:20:21.968Z,5.80
2019-02-25T02:22:49.249Z,5.90
2019-02-25T02:25:16.506Z,6.30
2019-02-25T02:27:45.115Z,5.80
2019-02-25T02:30:34.967Z,6.07
2019-02-25T02:33:02.382Z,6.90
2019-02-25T02:35:29.920Z,5.80
2019-02-25T02:37:57.198Z,6.03
2019-02-25T02:40:24.449Z,6.30
2019-02-25T02:42:53.232Z,6.00
2019-02-25T02:45:30.742Z,6.13
2019-02-25T02:48:20.126Z,6.40
2019-02-25T02:50:47.384Z,6.50
2019-02-25T02:53:14.686Z,6.53
2019-02-25T02:55:43.063Z,6.10
2019-02-25T02:58:11.359Z,5.90
2019-02-25T03:00:38.688Z,6.33
2019-02-25T03:03:07.302Z,6.07
2019-02-25T03:05:34.608Z,5.93
2019-02-25T03:08:01.909Z,6.73
2019-02-25T03:10:29.202Z,6.30
2019-02-25T03:12:56.527Z,7.27
2019-02-25T03:15:23.906Z,6.23
2019-02-25T03:17:51.187Z,6.90
2019-02-25T03:20:18.630Z,6.73
2019-02-25T03:22:45.921Z,6.07
2019-02-25T03:25:14.630Z,6.27
2019-02-25T03:27:41.973Z,6.13
2019-02-25T03:30:14.913Z,6.43
2019-02-25T03:32:42.182Z,7.20
2019-02-25T03:35:09.689Z,5.67
2019-02-25T03:37:37.149Z,7.27
2019-02-25T03:40:05.819Z,7.30
2019-02-25T03:42:33.428Z,6.90
2019-02-25T03:45:00.757Z,6.60
2019-02-25T03:47:30.399Z,5.50
2019-02-25T03:49:57.668Z,5.97
2019-02-25T03:52:26.144Z,6.37
2019-02-25T03:54:53.450Z,6.53
2019-02-25T03:57:20.776Z,6.60
2019-02-25T03:59:48.072Z,6.20
2019-02-25T04:02:16.428Z,6.50
2019-02-25T04:04:43.745Z,5.77
2019-02-25T04:07:11.154Z,6.30
2019-02-25T04:09:41.784Z,6.57
2019-02-25T04:12:10.075Z,5.40
2019-02-25T04:14:37.424Z,6.67
2019-02-25T04:17:04.749Z,6.60
2019-02-25T04:19:32.145Z,6.03
2019-02-25T04:21:59.452Z,6.17
2019-02-25T04:24:26.720Z,6.63
2019-02-25T04:26:55.649Z,7.00
2019-02-25T04:29:23.404Z,7.40
2019-02-25T04:31:50.745Z,6.63
2019-02-25T04:34:18.043Z,6.33
2019-02-25T04:36:45.340Z,6.67
2019-02-25T04:39:12.703Z,6.07
2019-02-25T04:41:40.010Z,6.83
2019-02-25T04:44:08.536Z,6.47
2019-02-25T04:46:37.126Z,7.40
2019-02-25T04:49:04.405Z,6.53
2019-02-25T04:51:31.696Z,6.43
2019-02-25T04:53:59.002Z,6.00
2019-02-25T04:56:26.221Z,6.50
2019-02-25T04:58:53.536Z,6.37
2019-02-25T05:01:20.854Z,6.53
2019-02-25T05:03:48.137Z,7.07
2019-02-25T05:06:15.480Z,7.77
2019-02-25T05:08:42.799Z,6.57
2019-02-25T05:11:10.116Z,7.10
2019-02-25T05:13:37.362Z,6.70
2019-02-25T05:16:06.515Z,6.77
2019-02-25T05:18:33.801Z,6.97
2019-02-25T05:21:01.103Z,6.83
2019-02-25T05:23:28.565Z,7.80
2019-02-25T05:25:57.709Z,8.73
2019-02-25T05:28:24.957Z,8.33
2019-02-25T05:30:52.254Z,8.90
2019-02-25T05:33:19.579Z,9.57
2019-02-25T05:35:48.185Z,8.53
2019-02-25T05:38:16.571Z,11.63
2019-02-25T05:40:43.870Z,9.90
2019-02-25T05:43:11.213Z,10.07
2019-02-25T05:45:39.731Z,9.90
2019-02-25T05:48:07.064Z,8.73
2019-02-25T05:50:34.371Z,8.53
2019-02-25T05:53:03.700Z,7.87
2019-02-25T05:55:30.982Z,7.93
2019-02-25T05:57:58.279Z,7.23
2019-02-25T06:00:26.296Z,7.00
2019-02-25T06:02:53.753Z,7.80
2019-02-25T06:05:21.124Z,7.50
2019-02-25T06:07:48.451Z,7.10
2019-02-25T06:10:15.786Z,6.37
2019-02-25T06:12:43.120Z,6.07
2019-02-25T06:15:11.438Z,7.10
2019-02-25T06:17:38.784Z,7.17
2019-02-25T06:20:07.465Z,6.60
2019-02-25T06:22:34.758Z,6.40
2019-02-25T06:25:02.119Z,6.17
2019-02-25T06:27:30.954Z,6.80
2019-02-25T06:29:58.494Z,7.73
2019-02-25T06:32:25.844Z,6.70
2019-02-25T06:34:53.171Z,6.90
2019-02-25T06:37:20.489Z,6.30
2019-02-25T06:39:47.837Z,6.90
2019-02-25T06:42:15.136Z,7.07
2019-02-25T06:44:42.428Z,5.93
2019-02-25T06:47:09.669Z,6.87
2019-02-25T06:49:36.986Z,6.47
2019-02-25T06:52:04.267Z,8.10
2019-02-25T06:54:31.544Z,7.20
2019-02-25T06:56:58.816Z,8.17
2019-02-25T06:59:27.300Z,9.80
2019-02-25T07:01:54.577Z,11.43
2019-02-25T07:04:42.641Z,9.63
2019-02-25T07:07:13.429Z,9.40
2019-02-25T07:10:00.425Z,9.10
2019-02-25T07:12:39.154Z,9.93
2019-02-25T07:15:11.746Z,10.50
2019-02-25T07:18:14.193Z,9.33
2019-02-25T07:20:52.405Z,7.97
2019-02-25T07:23:38.162Z,9.00
2019-02-25T07:26:43.574Z,8.80
2019-02-25T07:29:49.085Z,8.37
2019-02-25T07:32:26.034Z,8.63
2019-02-25T07:35:11.829Z,7.90
2019-02-25T07:38:07.747Z,7.87
2019-02-25T07:40:53.326Z,6.63
2019-02-25T07:43:33.869Z,6.87
2019-02-25T07:46:09.283Z,6.40
2019-02-25T07:48:59.369Z,7.13
2019-02-25T07:51:58.365Z,7.37
2019-02-25T07:54:40.004Z,9.00
2019-02-25T07:57:25.684Z,9.53
2019-02-25T08:00:08.777Z,13.17
2019-02-25T08:03:04.649Z,11.10
2019-02-25T08:05:44.406Z,9.87
2019-02-25T08:08:18.787Z,9.80
2019-02-25T08:11:05.784Z,9.03
2019-02-25T08:14:04.896Z,8.00
2019-02-25T08:17:07.001Z,7.20
2019-02-25T08:19:52.757Z,6.27
2019-02-25T08:22:51.807Z,6.47
2019-02-25T08:25:56.891Z,5.60
2019-02-25T08:28:43.834Z,7.03
2019-02-25T08:31:33.469Z,5.80
2019-02-25T08:34:18.732Z,6.70
2019-02-25T08:37:32.557Z,7.77
2019-02-25T08:40:25.076Z,6.50
2019-02-25T08:42:58.847Z,6.57
2019-02-25T08:45:51.390Z,6.03
2019-02-25T08:48:26.801Z,5.73
2019-02-25T08:50:56.255Z,5.97
2019-02-25T08:53:23.700Z,6.87
2019-02-25T08:55:50.951Z,6.60
2019-02-25T08:58:18.253Z,5.27
2019-02-25T09:00:45.652Z,5.93
2019-02-25T09:03:12.980Z,6.43
2019-02-25T09:05:40.278Z,5.70
2019-02-25T09:08:07.629Z,5.47
2019-02-25T09:10:34.938Z,5.30
2019-02-25T09:13:02.264Z,4.93
2019-02-25T09:15:29.577Z,7.57
2019-02-25T09:17:55.912Z,6.97
2019-02-25T09:20:23.213Z,6.27
2019-02-25T09:22:51.844Z,6.03
2019-02-25T09:25:19.089Z,6.43
2019-02-25T09:27:46.387Z,6.57
2019-02-25T09:30:15.041Z,5.50
2019-02-25T09:32:42.835Z,6.23
2019-02-25T09:35:10.355Z,5.13
2019-02-25T09:37:37.686Z,5.53
2019-02-25T09:40:06.323Z,5.97
2019-02-25T09:42:34.783Z,6.80
2019-02-25T09:45:02.091Z,5.80
2019-02-25T09:47:50.203Z,6.00
2019-02-25T09:50:17.589Z,4.93
2019-02-25T09:52:44.864Z,7.10
2019-02-25T09:55:12.319Z,5.90
2019-02-25T09:57:39.649Z,5.73
2019-02-25T10:00:10.098Z,5.80
2019-02-25T10:02:37.449Z,7.13
2019-02-25T10:05:05.374Z,6.70
2019-02-25T10:07:33.747Z,6.27
2019-02-25T10:10:01.028Z,5.97
2019-02-25T10:12:29.512Z,5.90
2019-02-25T10:14:57.171Z,6.40
2019-02-25T10:17:24.598Z,5.90
2019-02-25T10:19:51.980Z,6.30
2019-02-25T10:22:19.280Z,6.57
2019-02-25T10:24:46.609Z,6.43
2019-02-25T10:27:13.922Z,5.80
2019-02-25T10:29:41.270Z,5.73
2019-02-25T10:32:08.694Z,5.40
2019-02-25T10:34:36.002Z,5.90
2019-02-25T10:37:03.309Z,5.43
2019-02-25T10:39:30.607Z,5.73
2019-02-25T10:41:59.504Z,5.33
2019-02-25T10:44:27.082Z,6.07
2019-02-25T10:46:54.393Z,5.60
2019-02-25T10:49:22.479Z,5.30
2019-02-25T10:51:51.098Z,4.93
2019-02-25T10:54:19.600Z,6.27
2019-02-25T10:56:55.858Z,5.87
2019-02-25T10:59:23.974Z,6.83
2019-02-25T11:01:51.309Z,5.40
2019-02-25T11:04:21.784Z,5.77
2019-02-25T11:06:49.702Z,6.47
2019-02-25T11:09:44.403Z,6.20
2019-02-25T11:12:12.252Z,6.63
2019-02-25T11:14:41.105Z,7.03
2019-02-25T11:17:08.756Z,6.60
2019-02-25T11:19:36.027Z,5.80
2019-02-25T11:22:05.361Z,5.67
2019-02-25T11:24:32.786Z,5.67
2019-02-25T11:27:01.063Z,6.00
2019-02-25T11:29:29.830Z,5.00
2019-02-25T11:31:57.271Z,5.60
2019-02-25T11:34:24.893Z,5.23
2019-02-25T11:36:54.450Z,5.60
2019-02-25T11:39:22.535Z,4.83
2019-02-25T11:42:03.295Z,5.57
2019-02-25T11:44:31.612Z,5.13
2019-02-25T11:46:59.079Z,5.30
2019-02-25T11:49:26.448Z,6.33
2019-02-25T11:51:54.945Z,7.20
2019-02-25T11:54:22.216Z,5.60
2019-02-25T11:56:49.504Z,5.73
2019-02-25T11:59:16.842Z,6.03
2019-02-25T12:01:44.152Z,5.90
2019-02-25T12:04:11.493Z,5.33
2019-02-25T12:06:38.823Z,5.20
2019-02-25T12:09:06.138Z,5.10
2019-02-25T12:11:33.842Z,4.40
2019-02-25T12:14:01.140Z,4.87
2019-02-25T12:16:28.497Z,5.00
2019-02-25T12:18:55.724Z,5.67
2019-02-25T12:21:23.021Z,5.23
2019-02-25T12:23:50.326Z,6.13
2019-02-25T12:26:18.768Z,5.20
2019-02-25T12:28:46.105Z,6.50
2019-02-25T12:31:13.436Z,5.93
2019-02-25T12:33:40.797Z,6.63
2019-02-25T12:36:08.202Z,4.93
2019-02-25T12:38:35.463Z,5.67
2019-02-25T12:41:02.748Z,4.40
2019-02-25T12:43:30.116Z,5.50
2019-02-25T12:45:57.455Z,6.20
2019-02-25T12:48:24.808Z,5.57
2019-02-25T12:50:52.093Z,6.00
2019-02-25T12:53:19.408Z,6.70
2019-02-25T12:55:46.691Z,6.17
2019-02-25T12:58:14.168Z,6.47
2019-02-25T13:00:41.664Z,5.30
2019-02-25T13:03:09.045Z,5.83
2019-02-25T13:05:36.356Z,6.10
2019-02-25T13:08:03.862Z,5.63
2019-02-25T13:10:31.181Z,5.77
2019-02-25T13:12:58.502Z,6.43
2019-02-25T13:15:25.797Z,5.23
2019-02-25T13:17:53.163Z,5.20
2019-02-25T13:20:20.540Z,5.27
2019-02-25T13:22:47.800Z,6.47
2019-02-25T13:25:15.129Z,5.70
2019-02-25T13:27:42.414Z,5.00
2019-02-25T13:30:12.217Z,4.60
2019-02-25T13:32:39.626Z,5.70
2019-02-25T13:35:07.237Z,5.33
2019-02-25T13:37:35.024Z,4.40
2019-02-25T13:40:02.653Z,4.60
2019-02-25T13:42:31.333Z,4.50
2019-02-25T13:44:58.781Z,5.00
2019-02-25T13:47:26.305Z,6.23
2019-02-25T13:49:55.529Z,5.20
2019-02-25T13:52:23.051Z,4.73
2019-02-25T13:54:50.496Z,6.60
2019-02-25T13:57:17.951Z,5.17
2019-02-25T13:59:46.529Z,5.27
2019-02-25T14:02:13.960Z,5.20
2019-02-25T14:04:41.395Z,5.47
2019-02-25T14:07:10.059Z,5.30
2019-02-25T14:09:37.551Z,4.87
2019-02-25T14:12:04.881Z,5.23
2019-02-25T14:14:32.250Z,6.00
2019-02-25T14:16:59.697Z,5.23
2019-02-25T14:19:27.157Z,6.03
2019-02-25T14:21:56.104Z,5.90
2019-02-25T14:24:25.206Z,5.40
2019-02-25T14:26:54.533Z,5.30
2019-02-25T14:29:26.162Z,6.03
2019-02-25T14:32:04.318Z,5.13
2019-02-25T14:34:31.884Z,5.03
2019-02-25T14:37:00.216Z,5.87
2019-02-25T14:39:33.020Z,5.70
2019-02-25T14:42:04.267Z,6.13
2019-02-25T14:44:35.159Z,5.95
2019-02-25T14:47:03.393Z,5.70
2019-02-25T14:49:32.729Z,5.17
2019-02-25T14:52:00.205Z,5.63
2019-02-25T14:54:29.483Z,6.03
2019-02-25T14:56:57.176Z,6.60
2019-02-25T14:59:24.657Z,5.27
2019-02-25T15:01:52.130Z,4.85
2019-02-25T15:04:19.567Z,5.73
2019-02-25T15:06:47.323Z,6.47
2019-02-25T15:09:16.510Z,6.53
2019-02-25T15:11:43.959Z,6.33
2019-02-25T15:14:12.855Z,6.03
2019-02-25T15:16:40.834Z,7.13
2019-02-25T15:19:08.265Z,6.83
2019-02-25T15:21:35.908Z,8.05
2019-02-25T15:24:04.691Z,6.85
2019-02-25T15:26:42.255Z,6.67
2019-02-25T15:29:02.908Z,7.15
2019-02-25T15:31:31.220Z,7.50
2019-02-25T15:33:58.680Z,7.35
2019-02-25T15:36:26.991Z,8.13
2019-02-25T15:38:55.624Z,7.67
2019-02-25T15:41:23.061Z,7.75
2019-02-25T15:43:50.601Z,7.67
2019-02-25T15:46:19.631Z,7.33
2019-02-25T15:48:47.222Z,6.75
2019-02-25T15:51:14.873Z,5.20
2019-02-25T15:53:46.284Z,5.20
2019-02-25T15:56:12.352Z,5.12
2019-02-25T15:58:39.894Z,4.40
2019-02-25T16:01:10.024Z,4.37
2019-02-25T16:03:40.872Z,5.35
2019-02-25T16:06:10.143Z,4.63
2019-02-25T16:08:37.799Z,4.90
2019-02-25T16:11:05.324Z,4.83
2019-02-25T16:26:00.670Z,6.47
2019-02-25T16:28:28.968Z,7.40
2019-02-25T16:30:56.913Z,8.07
2019-02-25T16:33:25.938Z,6.07
2019-02-25T16:35:53.679Z,7.10
2019-02-25T16:38:23.150Z,6.90
2019-02-25T16:40:50.356Z,6.80
2019-02-25T16:43:18.942Z,5.73
2019-02-25T16:45:47.776Z,5.97
2019-02-25T16:48:15.216Z,6.97
2019-02-25T16:50:46.301Z,6.23
2019-02-25T16:53:15.420Z,7.17
2019-02-25T16:55:46.743Z,6.07
2019-02-25T16:58:14.022Z,6.33
2019-02-25T17:00:42.010Z,6.10
2019-02-25T17:03:11.191Z,6.53
2019-02-25T17:05:40.273Z,6.40
2019-02-25T17:08:12.427Z,6.17
2019-02-25T17:10:39.965Z,7.50
2019-02-25T17:13:08.106Z,7.07
2019-02-25T17:15:36.929Z,6.97
2019-02-25T17:18:04.365Z,6.13
2019-02-25T17:20:32.089Z,7.03
2019-02-25T17:22:59.806Z,7.73
2019-02-25T17:25:31.309Z,7.27
2019-02-25T17:27:56.702Z,7.60
2019-02-25T18:12:31.747Z,14.73
2019-02-25T18:15:03.512Z,15.57
2019-02-25T18:17:32.956Z,14.43
2019-02-25T18:20:00.257Z,16.40
2019-02-25T18:22:27.702Z,15.23
2019-02-25T18:24:55.300Z,13.90
2019-02-25T18:27:22.725Z,10.03
2019-02-25T18:29:52.546Z,11.57
2019-02-25T18:32:21.059Z,10.13
2019-02-25T18:34:50.029Z,10.07
2019-02-25T18:37:18.330Z,10.23
2019-02-25T18:39:47.702Z,11.30
2019-02-25T18:42:15.976Z,10.57
2019-02-25T18:44:47.002Z,11.17
2019-02-25T18:47:16.450Z,9.17
2019-02-25T18:49:44.613Z,9.43
2019-02-25T18:52:12.213Z,8.87
2019-02-25T18:54:43.319Z,10.50
2019-02-25T18:57:11.791Z,12.67
2019-02-25T18:59:39.496Z,12.83
2019-02-25T19:02:08.023Z,10.40
2019-02-25T19:04:37.581Z,9.93
2019-02-25T19:07:07.937Z,10.07
2019-02-25T19:09:36.097Z,9.13
2019-02-25T19:12:05.856Z,9.73
2019-02-25T19:14:35.913Z,8.27
2019-02-25T19:17:06.531Z,8.50
2019-02-25T19:19:38.164Z,7.90
2019-02-25T19:22:06.027Z,7.23
2019-02-25T19:24:37.539Z,7.80
2019-02-25T19:27:04.359Z,7.73
2019-02-25T19:29:32.696Z,8.53
2019-02-25T19:32:01.161Z,8.17
2019-02-25T19:34:28.843Z,7.70
2019-02-25T19:37:00.705Z,7.17
2019-02-25T19:39:25.950Z,6.60
2019-02-25T19:41:56.246Z,6.97
2019-02-25T19:44:23.347Z,7.20
2019-02-25T19:46:53.177Z,5.97
2019-02-25T19:49:22.136Z,7.23
2019-02-25T19:51:50.712Z,7.67
2019-02-25T19:54:19.520Z,6.90
2019-02-25T19:56:50.686Z,7.27
2019-02-25T19:59:19.370Z,7.10
2019-02-25T20:01:47.842Z,8.10
2019-02-25T20:04:16.439Z,7.20
2019-02-25T20:06:46.815Z,7.47
2019-02-25T20:09:15.850Z,7.03
2019-02-25T20:11:45.277Z,7.50
2019-02-25T20:14:16.573Z,7.17
2019-02-25T20:16:44.300Z,8.57
2019-02-25T20:19:12.292Z,11.47
2019-02-25T20:21:40.250Z,12.47
2019-02-25T20:24:12.362Z,13.00
2019-02-25T20:26:37.637Z,11.97
2019-02-25T20:29:06.347Z,11.90
2019-02-25T20:31:37.653Z,10.50
2019-02-25T20:34:05.249Z,10.33
2019-02-25T20:36:34.156Z,10.73
2019-02-25T20:39:01.909Z,9.30
2019-02-25T20:41:31.479Z,8.37
2019-02-25T20:44:00.638Z,9.53
2019-02-25T20:46:30.724Z,8.57
2019-02-25T20:48:59.932Z,7.77
2019-02-25T20:51:29.854Z,7.63
2019-02-25T20:53:57.368Z,8.77
2019-02-25T20:56:26.672Z,7.00
2019-02-25T20:58:55.749Z,7.77
2019-02-25T21:01:23.432Z,7.03
2019-02-25T21:03:52.674Z,6.73
2019-02-25T21:06:21.260Z,7.60
2019-02-25T21:08:49.117Z,8.43
2019-02-25T21:11:16.831Z,7.30
2019-02-25T21:13:44.563Z,8.27
2019-02-25T21:16:12.173Z,8.17
2019-02-25T21:18:40.949Z,7.43
2019-02-25T21:21:10.121Z,7.70
2019-02-25T21:23:38.318Z,9.23
2019-02-25T21:26:07.450Z,8.20
2019-02-25T21:28:36.493Z,8.47
2019-02-25T21:31:07.139Z,8.80
2019-02-25T21:33:34.295Z,11.40
2019-02-25T21:36:01.933Z,19.97
2019-02-25T21:38:30.288Z,17.23
2019-02-25T21:40:58.122Z,17.53
2019-02-25T21:43:28.399Z,17.53
2019-02-25T21:45:56.685Z,14.70
2019-02-25T21:48:25.699Z,15.97
2019-02-25T21:50:54.032Z,15.87
2019-02-25T21:53:21.713Z,14.33
2019-02-25T21:55:52.969Z,12.53
2019-02-25T21:58:21.441Z,14.60
2019-02-25T22:00:49.946Z,12.97
2019-02-25T22:03:19.454Z,16.07
2019-02-25T22:05:49.352Z,11.97
2019-02-25T22:08:20.035Z,13.57
2019-02-25T22:10:46.337Z,12.50
2019-02-25T22:13:15.945Z,12.33
2019-02-25T22:15:45.305Z,10.97
2019-02-25T22:18:14.108Z,11.60
2019-02-25T22:20:42.736Z,11.17
2019-02-25T22:23:11.241Z,10.77
2019-02-25T22:25:38.766Z,11.90
2019-02-25T22:28:07.817Z,9.93
2019-02-25T22:30:36.758Z,10.07
2019-02-25T22:33:04.820Z,11.60
2019-02-25T22:35:37.417Z,11.20
2019-02-25T22:38:03.138Z,10.90
2019-02-25T22:40:32.229Z,10.77
2019-02-25T22:43:00.084Z,8.77
2019-02-25T22:45:27.678Z,8.90
2019-02-25T22:47:55.320Z,8.10
2019-02-25T22:50:22.876Z,8.60
2019-02-25T22:52:55.613Z,8.23
2019-02-25T22:55:22.114Z,7.83
2019-02-25T22:57:51.900Z,8.27
2019-02-25T23:00:28.200Z,7.90
2019-02-25T23:02:57.695Z,9.23
2019-02-25T23:05:25.576Z,9.87
2019-02-25T23:07:54.698Z,11.33
2019-02-25T23:10:24.197Z,9.87
2019-02-25T23:12:52.982Z,11.73
2019-02-25T23:15:22.696Z,11.27
2019-02-25T23:17:50.106Z,11.57
2019-02-25T23:20:18.705Z,13.20
2019-02-25T23:22:46.356Z,12.00
2019-02-25T23:25:13.986Z,12.17
2019-02-25T23:27:41.459Z,12.30
2019-02-25T23:30:09.208Z,11.57
2019-02-25T23:32:38.811Z,11.87
2019-02-25T23:35:09.457Z,11.97
2019-02-25T23:37:35.595Z,10.73
2019-02-25T23:40:06.730Z,9.80
2019-02-25T23:42:35.281Z,11.33
2019-02-25T23:45:02.642Z,11.57
2019-02-25T23:47:31.657Z,11.60
2019-02-25T23:50:01.164Z,13.63
2019-02-25T23:52:30.977Z,14.73
2019-02-25T23:54:58.598Z,12.90
2019-02-25T23:57:28.295Z,12.77
2019-02-25T23:59:55.774Z,11.93
